sensor_id;sensor_type;location;lat;lon;timestamp;temperature;humidity
4429;DHT22;2227;47.810;8.810;2022-10-16T04:34:11;12.80;99.90
4429;DHT22;2227;47.810;8.810;2022-10-16T04:36:38;12.70;99.90
4429;DHT22;2227;47.810;8.810;2022-10-16T04:39:04;12.70;99.90
4429;DHT22;2227;47.810;8.810;2022-10-16T04:41:31;12.80;99.90
4429;DHT22;2227;47.810;8.810;2022-10-16T04:43:58;12.80;99.90
4429;DHT22;2227;47.810;8.810;2022-10-16T04:46:24;12.80;99.90
4429;DHT22;2227;47.810;8.810;2022-10-16T04:48:51;12.80;99.90
4429;DHT22;2227;47.810;8.810;2022-10-16T04:51:18;12.80;99.90
4429;DHT22;2227;47.810;8.810;2022-10-16T04:53:45;12.90;99.90
4429;DHT22;2227;47.810;8.810;2022-10-16T04:56:12;12.80;99.90
4429;DHT22;2227;47.810;8.810;2022-10-16T04:58:38;12.80;99.90
4429;DHT22;2227;47.810;8.810;2022-10-16T05:01:05;12.80;99.90
4429;DHT22;2227;47.810;8.810;2022-10-16T05:03:32;12.80;99.90
4429;DHT22;2227;47.810;8.810;2022-10-16T05:05:58;12.90;99.90
4429;DHT22;2227;47.810;8.810;2022-10-16T05:08:25;12.80;99.90
4429;DHT22;2227;47.810;8.810;2022-10-16T05:10:52;12.90;99.90
4429;DHT22;2227;47.810;8.810;2022-10-16T05:13:18;12.90;99.90
4429;DHT22;2227;47.810;8.810;2022-10-16T05:15:48;12.80;99.90
4429;DHT22;2227;47.810;8.810;2022-10-16T05:18:15;12.80;99.90
4429;DHT22;2227;47.810;8.810;2022-10-16T05:20:42;12.80;99.90
4429;DHT22;2227;47.810;8.810;2022-10-16T05:23:09;12.80;99.90
4429;DHT22;2227;47.810;8.810;2022-10-16T05:25:37;12.90;99.90
4429;DHT22;2227;47.810;8.810;2022-10-16T05:28:04;12.80;99.90
4429;DHT22;2227;47.810;8.810;2022-10-16T05:30:30;12.80;99.90
4429;DHT22;2227;47.810;8.810;2022-10-16T05:32:57;12.80;99.90
4429;DHT22;2227;47.810;8.810;2022-10-16T05:35:24;12.80;99.90
4429;DHT22;2227;47.810;8.810;2022-10-16T05:37:50;12.80;99.90
4429;DHT22;2227;47.810;8.810;2022-10-16T05:40:17;12.80;99.90
4429;DHT22;2227;47.810;8.810;2022-10-16T05:42:44;12.80;99.90
4429;DHT22;2227;47.810;8.810;2022-10-16T05:45:11;12.80;99.90
4429;DHT22;2227;47.810;8.810;2022-10-16T05:47:39;12.90;99.90
4429;DHT22;2227;47.810;8.810;2022-10-16T05:50:06;12.90;99.90
4429;DHT22;2227;47.810;8.810;2022-10-16T05:52:33;12.90;99.90
4429;DHT22;2227;47.810;8.810;2022-10-16T05:55:00;12.90;99.90
4429;DHT22;2227;47.810;8.810;2022-10-16T05:57:26;12.90;99.90
4429;DHT22;2227;47.810;8.810;2022-10-16T05:59:53;12.90;99.90
4429;DHT22;2227;47.810;8.810;2022-10-16T06:02:20;12.90;99.90
4429;DHT22;2227;47.810;8.810;2022-10-16T06:04:47;12.90;99.90
4429;DHT22;2227;47.810;8.810;2022-10-16T06:07:13;12.90;99.90
4429;DHT22;2227;47.810;8.810;2022-10-16T06:09:40;12.90;99.90
4429;DHT22;2227;47.810;8.810;2022-10-16T06:12:07;12.90;99.90
4429;DHT22;2227;47.810;8.810;2022-10-16T06:14:33;12.90;99.90
4429;DHT22;2227;47.810;8.810;2022-10-16T06:17:00;13.00;99.90
4429;DHT22;2227;47.810;8.810;2022-10-16T06:19:27;13.00;99.90
4429;DHT22;2227;47.810;8.810;2022-10-16T06:21:54;13.00;99.90
4429;DHT22;2227;47.810;8.810;2022-10-16T06:24:20;13.00;99.90
4429;DHT22;2227;47.810;8.810;2022-10-16T06:26:47;13.00;99.90
4429;DHT22;2227;47.810;8.810;2022-10-16T06:29:14;12.90;99.90
4429;DHT22;2227;47.810;8.810;2022-10-16T06:31:41;12.90;99.90
4429;DHT22;2227;47.810;8.810;2022-10-16T06:34:10;13.00;99.90
4429;DHT22;2227;47.810;8.810;2022-10-16T06:36:38;13.10;99.90
4429;DHT22;2227;47.810;8.810;2022-10-16T06:39:05;13.10;99.90
4429;DHT22;2227;47.810;8.810;2022-10-16T06:41:34;13.20;99.90
4429;DHT22;2227;47.810;8.810;2022-10-16T06:44:01;13.20;99.90
4429;DHT22;2227;47.810;8.810;2022-10-16T06:46:28;13.40;99.90
4429;DHT22;2227;47.810;8.810;2022-10-16T06:48:54;13.40;99.90
4429;DHT22;2227;47.810;8.810;2022-10-16T06:51:23;13.50;99.90
4429;DHT22;2227;47.810;8.810;2022-10-16T06:53:53;13.60;99.90
4429;DHT22;2227;47.810;8.810;2022-10-16T06:56:30;13.70;99.90
4429;DHT22;2227;47.810;8.810;2022-10-16T06:58:58;13.70;99.90
4429;DHT22;2227;47.810;8.810;2022-10-16T07:01:25;13.80;99.90
4429;DHT22;2227;47.810;8.810;2022-10-16T07:03:52;13.80;99.90
4429;DHT22;2227;47.810;8.810;2022-10-16T07:06:21;13.90;99.90
4429;DHT22;2227;47.810;8.810;2022-10-16T07:08:49;13.90;99.90
4429;DHT22;2227;47.810;8.810;2022-10-16T07:11:18;14.00;99.90
4429;DHT22;2227;47.810;8.810;2022-10-16T07:13:46;13.90;99.90
4429;DHT22;2227;47.810;8.810;2022-10-16T07:16:22;14.00;99.90
4429;DHT22;2227;47.810;8.810;2022-10-16T07:18:49;14.20;99.90
4429;DHT22;2227;47.810;8.810;2022-10-16T07:21:21;14.40;99.90
4429;DHT22;2227;47.810;8.810;2022-10-16T07:23:53;14.60;99.90
4429;DHT22;2227;47.810;8.810;2022-10-16T07:26:21;14.80;99.90
4429;DHT22;2227;47.810;8.810;2022-10-16T07:28:47;15.00;99.90
4429;DHT22;2227;47.810;8.810;2022-10-16T07:31:15;15.30;99.90
4429;DHT22;2227;47.810;8.810;2022-10-16T07:33:44;15.50;99.90
4429;DHT22;2227;47.810;8.810;2022-10-16T07:36:12;15.70;99.90
4429;DHT22;2227;47.810;8.810;2022-10-16T07:38:42;15.90;99.90
4429;DHT22;2227;47.810;8.810;2022-10-16T07:41:14;16.10;99.90
4429;DHT22;2227;47.810;8.810;2022-10-16T07:43:49;16.20;99.90
4429;DHT22;2227;47.810;8.810;2022-10-16T07:46:17;16.20;99.90
4429;DHT22;2227;47.810;8.810;2022-10-16T07:48:45;16.20;99.90
4429;DHT22;2227;47.810;8.810;2022-10-16T07:51:14;16.20;99.90
4429;DHT22;2227;47.810;8.810;2022-10-16T07:53:41;16.10;99.90
4429;DHT22;2227;47.810;8.810;2022-10-16T07:56:08;16.10;99.90
4429;DHT22;2227;47.810;8.810;2022-10-16T07:58:36;16.10;99.90
4429;DHT22;2227;47.810;8.810;2022-10-16T08:01:08;16.10;99.90
4429;DHT22;2227;47.810;8.810;2022-10-16T08:03:35;16.10;99.90
4429;DHT22;2227;47.810;8.810;2022-10-16T08:06:02;16.20;99.90
4429;DHT22;2227;47.810;8.810;2022-10-16T08:08:30;16.20;99.90
4429;DHT22;2227;47.810;8.810;2022-10-16T08:10:56;16.30;99.90
4429;DHT22;2227;47.810;8.810;2022-10-16T08:13:23;16.40;99.90
4429;DHT22;2227;47.810;8.810;2022-10-16T08:15:50;16.50;99.90
4429;DHT22;2227;47.810;8.810;2022-10-16T08:18:17;16.50;99.90
4429;DHT22;2227;47.810;8.810;2022-10-16T08:20:43;16.60;99.90
4429;DHT22;2227;47.810;8.810;2022-10-16T08:23:13;16.70;99.90
4429;DHT22;2227;47.810;8.810;2022-10-16T08:25:41;17.00;99.90
4429;DHT22;2227;47.810;8.810;2022-10-16T08:28:09;17.30;99.90
4429;DHT22;2227;47.810;8.810;2022-10-16T08:30:37;17.50;99.90
4429;DHT22;2227;47.810;8.810;2022-10-16T08:33:04;17.80;99.90
4429;DHT22;2227;47.810;8.810;2022-10-16T08:35:31;18.10;99.90
4429;DHT22;2227;47.810;8.810;2022-10-16T08:37:57;18.90;99.90
4429;DHT22;2227;47.810;8.810;2022-10-16T08:40:29;19.50;99.90
4429;DHT22;2227;47.810;8.810;2022-10-16T08:46:58;20.00;99.90
4429;DHT22;2227;47.810;8.810;2022-10-16T08:49:11;19.90;99.90
4429;DHT22;2227;47.810;8.810;2022-10-16T08:51:40;19.90;99.90
4429;DHT22;2227;47.810;8.810;2022-10-16T08:54:29;20.00;99.90
4429;DHT22;2227;47.810;8.810;2022-10-16T08:57:07;19.90;99.90
4429;DHT22;2227;47.810;8.810;2022-10-16T08:59:35;19.90;99.90
4429;DHT22;2227;47.810;8.810;2022-10-16T09:02:02;20.10;99.90
4429;DHT22;2227;47.810;8.810;2022-10-16T09:10:24;21.70;99.90
4429;DHT22;2227;47.810;8.810;2022-10-16T09:13:02;23.20;99.90
4429;DHT22;2227;47.810;8.810;2022-10-16T09:18:44;27.50;99.90
4429;DHT22;2227;47.810;8.810;2022-10-16T09:21:23;29.80;99.90
4429;DHT22;2227;47.810;8.810;2022-10-16T09:23:52;30.90;95.90
4429;DHT22;2227;47.810;8.810;2022-10-16T09:26:20;32.00;91.80
4429;DHT22;2227;47.810;8.810;2022-10-16T09:28:52;33.00;87.00
4429;DHT22;2227;47.810;8.810;2022-10-16T09:31:21;34.10;79.20
4429;DHT22;2227;47.810;8.810;2022-10-16T09:33:58;34.40;76.10
4429;DHT22;2227;47.810;8.810;2022-10-16T09:36:27;35.20;71.50
4429;DHT22;2227;47.810;8.810;2022-10-16T09:39:12;35.60;66.60
4429;DHT22;2227;47.810;8.810;2022-10-16T09:41:44;36.40;63.80
4429;DHT22;2227;47.810;8.810;2022-10-16T09:44:28;36.10;61.90
4429;DHT22;2227;47.810;8.810;2022-10-16T09:47:25;34.80;64.70
4429;DHT22;2227;47.810;8.810;2022-10-16T09:50:01;33.40;67.50
4429;DHT22;2227;47.810;8.810;2022-10-16T09:52:30;32.60;69.30
4429;DHT22;2227;47.810;8.810;2022-10-16T09:55:09;31.80;71.50
4429;DHT22;2227;47.810;8.810;2022-10-16T09:57:52;32.80;70.80
4429;DHT22;2227;47.810;8.810;2022-10-16T10:00:20;32.60;69.60
4429;DHT22;2227;47.810;8.810;2022-10-16T10:02:47;32.70;68.50
4429;DHT22;2227;47.810;8.810;2022-10-16T10:08:00;32.20;69.00
4429;DHT22;2227;47.810;8.810;2022-10-16T10:10:30;31.70;70.90
4429;DHT22;2227;47.810;8.810;2022-10-16T10:12:58;31.00;73.10
4429;DHT22;2227;47.810;8.810;2022-10-16T10:15:27;30.60;75.30
4429;DHT22;2227;47.810;8.810;2022-10-16T10:17:56;30.50;75.30
4429;DHT22;2227;47.810;8.810;2022-10-16T10:20:35;29.70;77.00
4429;DHT22;2227;47.810;8.810;2022-10-16T10:23:22;29.20;80.50
4429;DHT22;2227;47.810;8.810;2022-10-16T10:28:58;29.00;80.30
4429;DHT22;2227;47.810;8.810;2022-10-16T10:42:53;30.70;72.70
4429;DHT22;2227;47.810;8.810;2022-10-16T10:45:41;29.70;76.80
4429;DHT22;2227;47.810;8.810;2022-10-16T10:51:13;29.20;78.30
4429;DHT22;2227;47.810;8.810;2022-10-16T10:54:20;29.30;79.50
4429;DHT22;2227;47.810;8.810;2022-10-16T10:56:51;30.00;77.40
4429;DHT22;2227;47.810;8.810;2022-10-16T10:59:27;30.80;76.30
4429;DHT22;2227;47.810;8.810;2022-10-16T11:07:52;32.50;66.90
4429;DHT22;2227;47.810;8.810;2022-10-16T11:10:29;32.30;66.80
4429;DHT22;2227;47.810;8.810;2022-10-16T11:13:39;31.80;67.20
4429;DHT22;2227;47.810;8.810;2022-10-16T11:16:34;30.60;67.20
4429;DHT22;2227;47.810;8.810;2022-10-16T11:19:11;29.60;71.90
4429;DHT22;2227;47.810;8.810;2022-10-16T11:21:47;29.20;73.00
4429;DHT22;2227;47.810;8.810;2022-10-16T11:24:24;29.70;71.30
4429;DHT22;2227;47.810;8.810;2022-10-16T11:26:59;29.90;69.20
4429;DHT22;2227;47.810;8.810;2022-10-16T11:29:31;29.50;70.20
4429;DHT22;2227;47.810;8.810;2022-10-16T11:32:07;28.80;71.00
4429;DHT22;2227;47.810;8.810;2022-10-16T11:34:45;28.00;73.40
4429;DHT22;2227;47.810;8.810;2022-10-16T11:37:15;27.80;75.20
4429;DHT22;2227;47.810;8.810;2022-10-16T11:39:44;28.30;75.60
4429;DHT22;2227;47.810;8.810;2022-10-16T11:42:32;29.10;72.80
4429;DHT22;2227;47.810;8.810;2022-10-16T11:54:26;29.10;66.50
4429;DHT22;2227;47.810;8.810;2022-10-16T11:56:59;28.80;69.60
4429;DHT22;2227;47.810;8.810;2022-10-16T11:59:42;28.80;70.70
4429;DHT22;2227;47.810;8.810;2022-10-16T12:04:50;28.90;69.40
4429;DHT22;2227;47.810;8.810;2022-10-16T12:07:23;29.20;69.00
4429;DHT22;2227;47.810;8.810;2022-10-16T12:09:52;29.30;69.60
4429;DHT22;2227;47.810;8.810;2022-10-16T12:15:27;29.30;66.80
4429;DHT22;2227;47.810;8.810;2022-10-16T12:18:22;28.90;69.80
4429;DHT22;2227;47.810;8.810;2022-10-16T12:20:57;28.50;68.20
4429;DHT22;2227;47.810;8.810;2022-10-16T12:23:36;28.00;69.00
4429;DHT22;2227;47.810;8.810;2022-10-16T12:26:04;27.80;70.20
4429;DHT22;2227;47.810;8.810;2022-10-16T12:28:32;28.00;71.00
4429;DHT22;2227;47.810;8.810;2022-10-16T12:31:05;28.20;71.20
4429;DHT22;2227;47.810;8.810;2022-10-16T12:33:35;28.60;69.80
4429;DHT22;2227;47.810;8.810;2022-10-16T12:36:05;28.60;69.40
4429;DHT22;2227;47.810;8.810;2022-10-16T12:38:38;28.40;70.10
4429;DHT22;2227;47.810;8.810;2022-10-16T12:41:12;27.90;70.00
4429;DHT22;2227;47.810;8.810;2022-10-16T12:43:45;27.80;70.30
4429;DHT22;2227;47.810;8.810;2022-10-16T12:48:43;27.50;71.10
4429;DHT22;2227;47.810;8.810;2022-10-16T12:56:55;27.70;72.90
4429;DHT22;2227;47.810;8.810;2022-10-16T12:59:42;27.80;73.50
4429;DHT22;2227;47.810;8.810;2022-10-16T13:07:44;27.80;73.50
4429;DHT22;2227;47.810;8.810;2022-10-16T13:12:49;27.70;73.50
4429;DHT22;2227;47.810;8.810;2022-10-16T13:15:29;27.80;74.80
4429;DHT22;2227;47.810;8.810;2022-10-16T13:18:40;27.90;74.30
4429;DHT22;2227;47.810;8.810;2022-10-16T13:26:49;27.30;74.10
4429;DHT22;2227;47.810;8.810;2022-10-16T13:29:19;26.90;75.90
4429;DHT22;2227;47.810;8.810;2022-10-16T13:31:46;26.80;76.10
4429;DHT22;2227;47.810;8.810;2022-10-16T13:34:17;26.50;76.40
4429;DHT22;2227;47.810;8.810;2022-10-16T13:36:49;26.40;77.90
4429;DHT22;2227;47.810;8.810;2022-10-16T13:39:28;26.40;78.70
4429;DHT22;2227;47.810;8.810;2022-10-16T13:42:05;26.60;77.40
4429;DHT22;2227;47.810;8.810;2022-10-16T13:44:47;26.70;76.00
4429;DHT22;2227;47.810;8.810;2022-10-16T13:49:43;26.50;77.70
4429;DHT22;2227;47.810;8.810;2022-10-16T13:52:20;26.70;77.10
4429;DHT22;2227;47.810;8.810;2022-10-16T13:54:47;27.00;77.20
4429;DHT22;2227;47.810;8.810;2022-10-16T13:57:16;27.30;76.80
4429;DHT22;2227;47.810;8.810;2022-10-16T13:59:54;27.70;75.10
4429;DHT22;2227;47.810;8.810;2022-10-16T14:02:29;27.80;74.00
4429;DHT22;2227;47.810;8.810;2022-10-16T14:04:58;28.10;74.10
4429;DHT22;2227;47.810;8.810;2022-10-16T14:07:27;28.50;73.10
4429;DHT22;2227;47.810;8.810;2022-10-16T14:09:55;28.80;70.60
4429;DHT22;2227;47.810;8.810;2022-10-16T14:12:23;28.70;72.30
4429;DHT22;2227;47.810;8.810;2022-10-16T14:14:54;28.90;71.20
4429;DHT22;2227;47.810;8.810;2022-10-16T14:19:54;29.20;71.90
4429;DHT22;2227;47.810;8.810;2022-10-16T14:22:35;29.40;70.20
4429;DHT22;2227;47.810;8.810;2022-10-16T14:25:18;29.20;70.60
4429;DHT22;2227;47.810;8.810;2022-10-16T14:28:04;28.80;71.30
4429;DHT22;2227;47.810;8.810;2022-10-16T14:30:35;28.00;72.10
4429;DHT22;2227;47.810;8.810;2022-10-16T14:33:18;27.40;75.40
4429;DHT22;2227;47.810;8.810;2022-10-16T14:35:46;27.40;75.50
4429;DHT22;2227;47.810;8.810;2022-10-16T14:38:23;27.20;76.60
4429;DHT22;2227;47.810;8.810;2022-10-16T14:40:50;27.20;77.60
4429;DHT22;2227;47.810;8.810;2022-10-16T14:43:33;27.20;78.60
4429;DHT22;2227;47.810;8.810;2022-10-16T14:48:41;27.30;77.30
4429;DHT22;2227;47.810;8.810;2022-10-16T14:51:13;27.20;79.60
4429;DHT22;2227;47.810;8.810;2022-10-16T14:53:40;26.90;81.30
4429;DHT22;2227;47.810;8.810;2022-10-16T14:56:08;26.80;82.70
4429;DHT22;2227;47.810;8.810;2022-10-16T14:58:40;26.80;83.20
4429;DHT22;2227;47.810;8.810;2022-10-16T15:01:09;26.80;83.50
4429;DHT22;2227;47.810;8.810;2022-10-16T15:03:38;26.90;83.60
4429;DHT22;2227;47.810;8.810;2022-10-16T15:06:13;26.80;83.80
4429;DHT22;2227;47.810;8.810;2022-10-16T15:08:40;26.70;85.00
4429;DHT22;2227;47.810;8.810;2022-10-16T15:11:18;26.60;85.20
4429;DHT22;2227;47.810;8.810;2022-10-16T15:13:45;26.50;85.30
4429;DHT22;2227;47.810;8.810;2022-10-16T15:16:14;26.50;87.20
4429;DHT22;2227;47.810;8.810;2022-10-16T15:18:42;26.40;88.10
4429;DHT22;2227;47.810;8.810;2022-10-16T15:21:20;26.20;89.10
4429;DHT22;2227;47.810;8.810;2022-10-16T15:23:49;26.10;90.70
4429;DHT22;2227;47.810;8.810;2022-10-16T15:26:16;25.90;91.40
4429;DHT22;2227;47.810;8.810;2022-10-16T15:28:43;25.60;91.90
4429;DHT22;2227;47.810;8.810;2022-10-16T15:31:10;25.30;92.10
4429;DHT22;2227;47.810;8.810;2022-10-16T15:33:37;25.10;92.10
4429;DHT22;2227;47.810;8.810;2022-10-16T15:36:05;24.80;93.00
4429;DHT22;2227;47.810;8.810;2022-10-16T15:38:32;24.60;93.70
4429;DHT22;2227;47.810;8.810;2022-10-16T15:40:59;24.40;94.70
4429;DHT22;2227;47.810;8.810;2022-10-16T15:43:26;24.10;95.50
4429;DHT22;2227;47.810;8.810;2022-10-16T15:46:05;23.80;96.60
4429;DHT22;2227;47.810;8.810;2022-10-16T15:48:32;23.40;97.80
4429;DHT22;2227;47.810;8.810;2022-10-16T15:51:00;23.10;99.10
4429;DHT22;2227;47.810;8.810;2022-10-16T15:53:27;22.70;99.80
4429;DHT22;2227;47.810;8.810;2022-10-16T15:55:53;22.50;99.90
4429;DHT22;2227;47.810;8.810;2022-10-16T15:58:20;22.30;99.90
4429;DHT22;2227;47.810;8.810;2022-10-16T16:00:58;22.10;99.90
4429;DHT22;2227;47.810;8.810;2022-10-16T16:03:28;21.80;99.90
4429;DHT22;2227;47.810;8.810;2022-10-16T16:05:55;21.60;99.90
4429;DHT22;2227;47.810;8.810;2022-10-16T16:08:22;21.40;99.90
4429;DHT22;2227;47.810;8.810;2022-10-16T16:10:59;21.20;99.90
4429;DHT22;2227;47.810;8.810;2022-10-16T16:13:26;21.10;99.90
4429;DHT22;2227;47.810;8.810;2022-10-16T16:15:53;21.00;99.90
4429;DHT22;2227;47.810;8.810;2022-10-16T16:18:20;20.90;99.90
4429;DHT22;2227;47.810;8.810;2022-10-16T16:20:47;20.80;99.90
4429;DHT22;2227;47.810;8.810;2022-10-16T16:23:14;20.70;99.90
4429;DHT22;2227;47.810;8.810;2022-10-16T16:25:41;20.60;99.90
4429;DHT22;2227;47.810;8.810;2022-10-16T16:28:08;20.50;99.90
4429;DHT22;2227;47.810;8.810;2022-10-16T16:30:37;20.30;99.90
4429;DHT22;2227;47.810;8.810;2022-10-16T16:33:03;20.00;99.90
4429;DHT22;2227;47.810;8.810;2022-10-16T16:35:30;19.80;99.90
4429;DHT22;2227;47.810;8.810;2022-10-16T16:37:57;19.70;99.90
4429;DHT22;2227;47.810;8.810;2022-10-16T16:40:24;19.70;99.90
4429;DHT22;2227;47.810;8.810;2022-10-16T16:42:50;19.70;99.90
4429;DHT22;2227;47.810;8.810;2022-10-16T16:45:17;19.60;99.90
4429;DHT22;2227;47.810;8.810;2022-10-16T16:47:44;19.60;99.90
4429;DHT22;2227;47.810;8.810;2022-10-16T16:50:10;19.50;99.90
4429;DHT22;2227;47.810;8.810;2022-10-16T16:52:37;19.30;99.90
4429;DHT22;2227;47.810;8.810;2022-10-16T16:55:04;19.20;99.90
4429;DHT22;2227;47.810;8.810;2022-10-16T16:57:31;19.10;99.90
4429;DHT22;2227;47.810;8.810;2022-10-16T16:59:57;19.00;99.90
4429;DHT22;2227;47.810;8.810;2022-10-16T17:02:24;18.90;99.90
4429;DHT22;2227;47.810;8.810;2022-10-16T17:04:51;18.80;99.90
4429;DHT22;2227;47.810;8.810;2022-10-16T17:07:18;18.60;99.90
4429;DHT22;2227;47.810;8.810;2022-10-16T17:09:49;18.60;99.90
4429;DHT22;2227;47.810;8.810;2022-10-16T17:12:16;18.50;99.90
4429;DHT22;2227;47.810;8.810;2022-10-16T17:14:43;18.40;99.90
4429;DHT22;2227;47.810;8.810;2022-10-16T17:17:10;18.30;99.90
4429;DHT22;2227;47.810;8.810;2022-10-16T17:19:36;18.20;99.90
4429;DHT22;2227;47.810;8.810;2022-10-16T17:22:03;18.10;99.90
4429;DHT22;2227;47.810;8.810;2022-10-16T17:24:30;18.10;99.90
4429;DHT22;2227;47.810;8.810;2022-10-16T17:26:57;18.10;99.90
4429;DHT22;2227;47.810;8.810;2022-10-16T17:29:23;18.20;99.90
4429;DHT22;2227;47.810;8.810;2022-10-16T17:31:50;18.10;99.90
4429;DHT22;2227;47.810;8.810;2022-10-16T17:34:17;18.10;99.90
4429;DHT22;2227;47.810;8.810;2022-10-16T17:36:44;18.00;99.90
4429;DHT22;2227;47.810;8.810;2022-10-16T17:39:13;17.80;99.90
4429;DHT22;2227;47.810;8.810;2022-10-16T17:41:40;17.70;99.90
4429;DHT22;2227;47.810;8.810;2022-10-16T17:44:07;17.70;99.90
4429;DHT22;2227;47.810;8.810;2022-10-16T17:46:34;17.60;99.90
4429;DHT22;2227;47.810;8.810;2022-10-16T17:49:08;17.60;99.90
4429;DHT22;2227;47.810;8.810;2022-10-16T17:51:35;17.60;99.90
4429;DHT22;2227;47.810;8.810;2022-10-16T17:54:02;17.50;99.90
4429;DHT22;2227;47.810;8.810;2022-10-16T17:56:29;17.40;99.90
4429;DHT22;2227;47.810;8.810;2022-10-16T17:58:59;17.40;99.90
4429;DHT22;2227;47.810;8.810;2022-10-16T18:01:28;17.30;99.90
4429;DHT22;2227;47.810;8.810;2022-10-16T18:03:58;17.30;99.90
4429;DHT22;2227;47.810;8.810;2022-10-16T18:06:26;17.20;99.90
4429;DHT22;2227;47.810;8.810;2022-10-16T18:08:54;17.10;99.90
4429;DHT22;2227;47.810;8.810;2022-10-16T18:11:22;16.90;99.90
4429;DHT22;2227;47.810;8.810;2022-10-16T18:13:54;16.80;99.90
4429;DHT22;2227;47.810;8.810;2022-10-16T18:16:23;16.60;99.90
4429;DHT22;2227;47.810;8.810;2022-10-16T18:18:50;16.50;99.90
4429;DHT22;2227;47.810;8.810;2022-10-16T18:21:18;16.30;99.90
4429;DHT22;2227;47.810;8.810;2022-10-16T18:23:46;16.40;99.90
4429;DHT22;2227;47.810;8.810;2022-10-16T18:26:18;16.40;99.90
4429;DHT22;2227;47.810;8.810;2022-10-16T18:28:45;16.40;99.90
4429;DHT22;2227;47.810;8.810;2022-10-16T18:31:14;16.30;99.90
4429;DHT22;2227;47.810;8.810;2022-10-16T18:33:42;16.30;99.90
4429;DHT22;2227;47.810;8.810;2022-10-16T18:36:21;16.30;99.90
4429;DHT22;2227;47.810;8.810;2022-10-16T18:38:49;16.30;99.90
4429;DHT22;2227;47.810;8.810;2022-10-16T18:41:16;16.30;99.90
4429;DHT22;2227;47.810;8.810;2022-10-16T18:43:43;16.20;99.90
4429;DHT22;2227;47.810;8.810;2022-10-16T18:46:12;16.20;99.90
4429;DHT22;2227;47.810;8.810;2022-10-16T18:48:40;16.10;99.90
4429;DHT22;2227;47.810;8.810;2022-10-16T18:51:21;16.00;99.90
4429;DHT22;2227;47.810;8.810;2022-10-16T18:53:51;16.00;99.90
4429;DHT22;2227;47.810;8.810;2022-10-16T18:56:20;16.00;99.90
4429;DHT22;2227;47.810;8.810;2022-10-16T18:58:48;15.90;99.90
4429;DHT22;2227;47.810;8.810;2022-10-16T19:01:22;15.90;99.90
4429;DHT22;2227;47.810;8.810;2022-10-16T19:03:56;15.90;99.90
4429;DHT22;2227;47.810;8.810;2022-10-16T19:06:23;15.70;99.90
4429;DHT22;2227;47.810;8.810;2022-10-16T19:08:50;15.70;99.90
4429;DHT22;2227;47.810;8.810;2022-10-16T19:11:19;15.80;99.90
4429;DHT22;2227;47.810;8.810;2022-10-16T19:13:46;15.70;99.90
4429;DHT22;2227;47.810;8.810;2022-10-16T19:16:16;15.80;99.90
4429;DHT22;2227;47.810;8.810;2022-10-16T19:18:47;15.70;99.90
4429;DHT22;2227;47.810;8.810;2022-10-16T19:21:15;15.70;99.90
4429;DHT22;2227;47.810;8.810;2022-10-16T19:23:42;15.60;99.90
4429;DHT22;2227;47.810;8.810;2022-10-16T19:26:14;15.60;99.90
4429;DHT22;2227;47.810;8.810;2022-10-16T19:28:43;15.60;99.90
4429;DHT22;2227;47.810;8.810;2022-10-16T19:31:13;15.60;99.90
4429;DHT22;2227;47.810;8.810;2022-10-16T19:33:40;15.60;99.90
4429;DHT22;2227;47.810;8.810;2022-10-16T19:36:19;15.50;99.90
4429;DHT22;2227;47.810;8.810;2022-10-16T19:38:53;15.40;99.90
4429;DHT22;2227;47.810;8.810;2022-10-16T19:41:20;15.30;99.90
4429;DHT22;2227;47.810;8.810;2022-10-16T19:43:49;15.30;99.90
4429;DHT22;2227;47.810;8.810;2022-10-16T19:46:24;15.20;99.90
4429;DHT22;2227;47.810;8.810;2022-10-16T19:48:55;15.10;99.90
4429;DHT22;2227;47.810;8.810;2022-10-16T19:51:23;15.10;99.90
4429;DHT22;2227;47.810;8.810;2022-10-16T19:53:55;15.10;99.90
4429;DHT22;2227;47.810;8.810;2022-10-16T19:56:24;15.20;99.90
4429;DHT22;2227;47.810;8.810;2022-10-16T19:58:53;15.10;99.90
4429;DHT22;2227;47.810;8.810;2022-10-16T20:01:21;15.10;99.90
4429;DHT22;2227;47.810;8.810;2022-10-16T20:03:48;14.90;99.90
4429;DHT22;2227;47.810;8.810;2022-10-16T20:06:17;14.90;99.90
4429;DHT22;2227;47.810;8.810;2022-10-16T20:08:45;14.90;99.90
4429;DHT22;2227;47.810;8.810;2022-10-16T20:11:15;14.90;99.90
4429;DHT22;2227;47.810;8.810;2022-10-16T20:13:43;14.90;99.90
4429;DHT22;2227;47.810;8.810;2022-10-16T20:16:11;15.00;99.90
4429;DHT22;2227;47.810;8.810;2022-10-16T20:18:38;14.90;99.90
4429;DHT22;2227;47.810;8.810;2022-10-16T20:21:09;14.90;99.90
4429;DHT22;2227;47.810;8.810;2022-10-16T20:23:36;14.90;99.90
4429;DHT22;2227;47.810;8.810;2022-10-16T20:26:03;14.90;99.90
4429;DHT22;2227;47.810;8.810;2022-10-16T20:28:30;14.90;99.90
4429;DHT22;2227;47.810;8.810;2022-10-16T20:30:57;14.80;99.90
4429;DHT22;2227;47.810;8.810;2022-10-16T20:33:23;14.70;99.90
4429;DHT22;2227;47.810;8.810;2022-10-16T20:35:50;14.70;99.90
4429;DHT22;2227;47.810;8.810;2022-10-16T20:38:17;14.70;99.90
4429;DHT22;2227;47.810;8.810;2022-10-16T20:40:46;14.60;99.90
4429;DHT22;2227;47.810;8.810;2022-10-16T20:43:14;14.40;99.90
4429;DHT22;2227;47.810;8.810;2022-10-16T20:45:42;14.40;99.90
4429;DHT22;2227;47.810;8.810;2022-10-16T20:48:09;14.30;99.90
4429;DHT22;2227;47.810;8.810;2022-10-16T20:50:40;14.30;99.90
4429;DHT22;2227;47.810;8.810;2022-10-16T20:53:07;14.40;99.90
4429;DHT22;2227;47.810;8.810;2022-10-16T20:55:36;14.50;99.90
4429;DHT22;2227;47.810;8.810;2022-10-16T20:58:04;14.50;99.90
4429;DHT22;2227;47.810;8.810;2022-10-16T21:00:31;14.50;99.90
4429;DHT22;2227;47.810;8.810;2022-10-16T21:02:57;14.50;99.90
4429;DHT22;2227;47.810;8.810;2022-10-16T21:05:24;14.50;99.90
4429;DHT22;2227;47.810;8.810;2022-10-16T21:07:54;14.50;99.90
4429;DHT22;2227;47.810;8.810;2022-10-16T21:10:21;14.50;99.90
4429;DHT22;2227;47.810;8.810;2022-10-16T21:12:52;14.50;99.90
4429;DHT22;2227;47.810;8.810;2022-10-16T21:15:20;14.50;99.90
4429;DHT22;2227;47.810;8.810;2022-10-16T21:17:47;14.40;99.90
4429;DHT22;2227;47.810;8.810;2022-10-16T21:20:13;14.40;99.90
4429;DHT22;2227;47.810;8.810;2022-10-16T21:22:40;14.30;99.90
4429;DHT22;2227;47.810;8.810;2022-10-16T21:25:07;14.30;99.90
4429;DHT22;2227;47.810;8.810;2022-10-16T21:27:37;14.30;99.90
4429;DHT22;2227;47.810;8.810;2022-10-16T21:30:06;14.30;99.90
4429;DHT22;2227;47.810;8.810;2022-10-16T21:32:39;14.20;99.90
4429;DHT22;2227;47.810;8.810;2022-10-16T21:35:06;14.20;99.90
4429;DHT22;2227;47.810;8.810;2022-10-16T21:37:33;14.00;99.90
4429;DHT22;2227;47.810;8.810;2022-10-16T21:40:00;13.90;99.90
4429;DHT22;2227;47.810;8.810;2022-10-16T21:42:27;13.90;99.90
4429;DHT22;2227;47.810;8.810;2022-10-16T21:44:54;13.90;99.90
4429;DHT22;2227;47.810;8.810;2022-10-16T21:47:21;14.00;99.90
4429;DHT22;2227;47.810;8.810;2022-10-16T21:49:48;14.00;99.90
4429;DHT22;2227;47.810;8.810;2022-10-16T21:52:15;13.90;99.90
4429;DHT22;2227;47.810;8.810;2022-10-16T21:54:41;13.90;99.90
4429;DHT22;2227;47.810;8.810;2022-10-16T21:57:08;13.90;99.90
4429;DHT22;2227;47.810;8.810;2022-10-16T21:59:35;13.90;99.90
4429;DHT22;2227;47.810;8.810;2022-10-16T22:02:02;13.90;99.90
4429;DHT22;2227;47.810;8.810;2022-10-16T22:04:29;13.80;99.90
4429;DHT22;2227;47.810;8.810;2022-10-16T22:06:55;13.80;99.90
4429;DHT22;2227;47.810;8.810;2022-10-16T22:09:22;13.80;99.90
4429;DHT22;2227;47.810;8.810;2022-10-16T22:11:49;13.70;99.90
4429;DHT22;2227;47.810;8.810;2022-10-16T22:14:19;13.60;99.90
4429;DHT22;2227;47.810;8.810;2022-10-16T22:16:48;13.70;99.90